sensor_id;sensor_type;location;lat;lon;timestamp;pressure;altitude;pressure_sealevel;temperature
15680;BMP180;15488;48.114;11.532;2022-11-18T00:02:19;93704.00;;;16.30
15680;BMP180;15488;48.114;11.532;2022-11-18T00:04:47;93700.00;;;16.30
15680;BMP180;15488;48.114;11.532;2022-11-18T00:07:14;93692.00;;;16.30
15680;BMP180;15488;48.114;11.532;2022-11-18T00:09:42;93697.00;;;16.30
15680;BMP180;15488;48.114;11.532;2022-11-18T00:12:09;93686.00;;;16.20
15680;BMP180;15488;48.114;11.532;2022-11-18T00:14:56;93681.00;;;16.20
15680;BMP180;15488;48.114;11.532;2022-11-18T00:17:24;93686.00;;;16.30
15680;BMP180;15488;48.114;11.532;2022-11-18T00:19:52;93677.00;;;16.30
15680;BMP180;15488;48.114;11.532;2022-11-18T00:22:19;93617.00;;;16.20
15680;BMP180;15488;48.114;11.532;2022-11-18T00:24:46;93676.00;;;16.20
15680;BMP180;15488;48.114;11.532;2022-11-18T00:27:14;93674.00;;;16.30
15680;BMP180;15488;48.114;11.532;2022-11-18T00:29:41;93664.00;;;16.30
15680;BMP180;15488;48.114;11.532;2022-11-18T00:32:10;93671.00;;;16.20
15680;BMP180;15488;48.114;11.532;2022-11-18T00:34:37;93672.00;;;16.10
15680;BMP180;15488;48.114;11.532;2022-11-18T00:37:07;93670.00;;;16.20
15680;BMP180;15488;48.114;11.532;2022-11-18T00:39:35;93664.00;;;16.20
15680;BMP180;15488;48.114;11.532;2022-11-18T00:42:02;93665.00;;;16.20
15680;BMP180;15488;48.114;11.532;2022-11-18T00:44:47;93663.00;;;16.10
15680;BMP180;15488;48.114;11.532;2022-11-18T00:47:16;93656.00;;;16.00
15680;BMP180;15488;48.114;11.532;2022-11-18T00:49:43;93655.00;;;16.10
15680;BMP180;15488;48.114;11.532;2022-11-18T00:52:11;93652.00;;;16.10
15680;BMP180;15488;48.114;11.532;2022-11-18T00:54:38;93657.00;;;16.00
15680;BMP180;15488;48.114;11.532;2022-11-18T00:57:06;93659.00;;;16.00
15680;BMP180;15488;48.114;11.532;2022-11-18T00:59:33;93655.00;;;16.00
15680;BMP180;15488;48.114;11.532;2022-11-18T01:02:00;93651.00;;;16.00
15680;BMP180;15488;48.114;11.532;2022-11-18T01:04:29;93652.00;;;16.00
15680;BMP180;15488;48.114;11.532;2022-11-18T01:06:57;93648.00;;;16.00
15680;BMP180;15488;48.114;11.532;2022-11-18T01:09:24;93649.00;;;16.00
15680;BMP180;15488;48.114;11.532;2022-11-18T01:11:52;93645.00;;;16.00
15680;BMP180;15488;48.114;11.532;2022-11-18T01:14:36;93640.00;;;16.10
15680;BMP180;15488;48.114;11.532;2022-11-18T01:17:04;93635.00;;;16.00
15680;BMP180;15488;48.114;11.532;2022-11-18T01:19:33;93638.00;;;16.00
15680;BMP180;15488;48.114;11.532;2022-11-18T01:22:01;93635.00;;;16.00
15680;BMP180;15488;48.114;11.532;2022-11-18T01:24:29;93630.00;;;16.00
15680;BMP180;15488;48.114;11.532;2022-11-18T01:26:57;93625.00;;;16.00
15680;BMP180;15488;48.114;11.532;2022-11-18T01:29:24;93618.00;;;16.00
15680;BMP180;15488;48.114;11.532;2022-11-18T01:31:51;93617.00;;;16.00
15680;BMP180;15488;48.114;11.532;2022-11-18T01:34:19;93611.00;;;16.00
15680;BMP180;15488;48.114;11.532;2022-11-18T01:36:50;93612.00;;;16.00
15680;BMP180;15488;48.114;11.532;2022-11-18T01:39:18;93603.00;;;16.10
15680;BMP180;15488;48.114;11.532;2022-11-18T01:41:45;93606.00;;;16.10
15680;BMP180;15488;48.114;11.532;2022-11-18T01:47:13;93621.00;;;16.00
15680;BMP180;15488;48.114;11.532;2022-11-18T01:49:41;93608.00;;;16.00
15680;BMP180;15488;48.114;11.532;2022-11-18T01:52:10;93624.00;;;16.00
15680;BMP180;15488;48.114;11.532;2022-11-18T01:54:41;93634.00;;;16.00
15680;BMP180;15488;48.114;11.532;2022-11-18T01:57:14;93638.00;;;16.10
15680;BMP180;15488;48.114;11.532;2022-11-18T01:59:45;93644.00;;;16.10
15680;BMP180;15488;48.114;11.532;2022-11-18T02:02:14;93642.00;;;16.10
15680;BMP180;15488;48.114;11.532;2022-11-18T02:04:44;93642.00;;;16.20
15680;BMP180;15488;48.114;11.532;2022-11-18T02:07:15;93640.00;;;16.10
15680;BMP180;15488;48.114;11.532;2022-11-18T02:09:43;93652.00;;;16.10
15680;BMP180;15488;48.114;11.532;2022-11-18T02:12:11;93639.00;;;16.10
15680;BMP180;15488;48.114;11.532;2022-11-18T02:14:43;93637.00;;;16.10
15680;BMP180;15488;48.114;11.532;2022-11-18T02:17:17;93636.00;;;16.20
15680;BMP180;15488;48.114;11.532;2022-11-18T02:20:05;93634.00;;;16.10
15680;BMP180;15488;48.114;11.532;2022-11-18T02:22:54;93636.00;;;16.10
15680;BMP180;15488;48.114;11.532;2022-11-18T02:25:33;93640.00;;;16.10
15680;BMP180;15488;48.114;11.532;2022-11-18T02:28:23;93637.00;;;16.10
15680;BMP180;15488;48.114;11.532;2022-11-18T02:30:58;93638.00;;;16.10
15680;BMP180;15488;48.114;11.532;2022-11-18T02:33:35;93635.00;;;16.00
15680;BMP180;15488;48.114;11.532;2022-11-18T02:36:09;93636.00;;;16.10
15680;BMP180;15488;48.114;11.532;2022-11-18T02:38:43;93629.00;;;16.10
15680;BMP180;15488;48.114;11.532;2022-11-18T02:41:15;93635.00;;;16.20
15680;BMP180;15488;48.114;11.532;2022-11-18T02:43:46;93636.00;;;16.20
15680;BMP180;15488;48.114;11.532;2022-11-18T02:46:19;93634.00;;;16.20
15680;BMP180;15488;48.114;11.532;2022-11-18T02:48:49;93628.00;;;16.10
15680;BMP180;15488;48.114;11.532;2022-11-18T02:51:22;93628.00;;;16.10
15680;BMP180;15488;48.114;11.532;2022-11-18T02:53:51;93630.00;;;16.10
15680;BMP180;15488;48.114;11.532;2022-11-18T02:56:21;93631.00;;;16.20
15680;BMP180;15488;48.114;11.532;2022-11-18T02:58:50;93631.00;;;16.10
15680;BMP180;15488;48.114;11.532;2022-11-18T03:01:21;93629.00;;;16.10
15680;BMP180;15488;48.114;11.532;2022-11-18T03:03:51;93623.00;;;16.10
15680;BMP180;15488;48.114;11.532;2022-11-18T03:06:26;93630.00;;;16.10
15680;BMP180;15488;48.114;11.532;2022-11-18T03:09:00;93626.00;;;16.10
15680;BMP180;15488;48.114;11.532;2022-11-18T03:11:31;93625.00;;;16.10
15680;BMP180;15488;48.114;11.532;2022-11-18T03:14:13;93624.00;;;16.00
15680;BMP180;15488;48.114;11.532;2022-11-18T03:16:50;93627.00;;;16.10
15680;BMP180;15488;48.114;11.532;2022-11-18T03:19:26;93626.00;;;16.10
15680;BMP180;15488;48.114;11.532;2022-11-18T03:22:01;93624.00;;;16.00
15680;BMP180;15488;48.114;11.532;2022-11-18T03:24:32;93629.00;;;16.10
15680;BMP180;15488;48.114;11.532;2022-11-18T03:27:05;93597.00;;;16.10
15680;BMP180;15488;48.114;11.532;2022-11-18T03:29:40;93626.00;;;16.00
15680;BMP180;15488;48.114;11.532;2022-11-18T03:32:15;93634.00;;;16.10
15680;BMP180;15488;48.114;11.532;2022-11-18T03:34:46;93644.00;;;16.10
15680;BMP180;15488;48.114;11.532;2022-11-18T03:37:16;93643.00;;;16.00
15680;BMP180;15488;48.114;11.532;2022-11-18T03:39:48;93643.00;;;15.90
15680;BMP180;15488;48.114;11.532;2022-11-18T03:42:20;93651.00;;;15.90
15680;BMP180;15488;48.114;11.532;2022-11-18T03:44:53;93658.00;;;15.90
15680;BMP180;15488;48.114;11.532;2022-11-18T03:47:27;93664.00;;;15.90
15680;BMP180;15488;48.114;11.532;2022-11-18T03:50:00;93675.00;;;15.90
15680;BMP180;15488;48.114;11.532;2022-11-18T03:52:33;93686.00;;;15.90
15680;BMP180;15488;48.114;11.532;2022-11-18T03:55:07;93686.00;;;15.90
15680;BMP180;15488;48.114;11.532;2022-11-18T03:57:42;93692.00;;;15.90
15680;BMP180;15488;48.114;11.532;2022-11-18T04:00:14;93697.00;;;15.90
15680;BMP180;15488;48.114;11.532;2022-11-18T04:02:45;93695.00;;;15.70
15680;BMP180;15488;48.114;11.532;2022-11-18T04:05:16;93705.00;;;15.60
15680;BMP180;15488;48.114;11.532;2022-11-18T04:07:51;93699.00;;;15.60
15680;BMP180;15488;48.114;11.532;2022-11-18T04:10:21;93695.00;;;15.50
15680;BMP180;15488;48.114;11.532;2022-11-18T04:12:57;93700.00;;;15.60
15680;BMP180;15488;48.114;11.532;2022-11-18T04:15:26;93687.00;;;15.40
15680;BMP180;15488;48.114;11.532;2022-11-18T04:17:55;93690.00;;;15.50
15680;BMP180;15488;48.114;11.532;2022-11-18T04:20:23;93695.00;;;15.40
15680;BMP180;15488;48.114;11.532;2022-11-18T04:22:51;93692.00;;;15.40
15680;BMP180;15488;48.114;11.532;2022-11-18T04:25:18;93700.00;;;15.40
15680;BMP180;15488;48.114;11.532;2022-11-18T04:27:45;93695.00;;;15.40
15680;BMP180;15488;48.114;11.532;2022-11-18T04:30:13;93694.00;;;15.30
15680;BMP180;15488;48.114;11.532;2022-11-18T04:32:40;93689.00;;;15.40
15680;BMP180;15488;48.114;11.532;2022-11-18T04:35:10;93693.00;;;15.40
15680;BMP180;15488;48.114;11.532;2022-11-18T04:37:37;93619.00;;;15.40
15680;BMP180;15488;48.114;11.532;2022-11-18T04:40:05;93686.00;;;15.50
15680;BMP180;15488;48.114;11.532;2022-11-18T04:42:33;93692.00;;;15.40
15680;BMP180;15488;48.114;11.532;2022-11-18T04:45:01;93683.00;;;15.40
15680;BMP180;15488;48.114;11.532;2022-11-18T04:47:28;93684.00;;;15.40
15680;BMP180;15488;48.114;11.532;2022-11-18T04:49:56;93690.00;;;15.40
15680;BMP180;15488;48.114;11.532;2022-11-18T04:52:25;93685.00;;;15.30
15680;BMP180;15488;48.114;11.532;2022-11-18T04:54:52;93683.00;;;15.40
15680;BMP180;15488;48.114;11.532;2022-11-18T04:57:20;93686.00;;;15.40
15680;BMP180;15488;48.114;11.532;2022-11-18T04:59:47;93688.00;;;15.30
15680;BMP180;15488;48.114;11.532;2022-11-18T05:02:15;93684.00;;;15.30
15680;BMP180;15488;48.114;11.532;2022-11-18T05:04:42;93686.00;;;15.20
15680;BMP180;15488;48.114;11.532;2022-11-18T05:07:13;93681.00;;;15.20
15680;BMP180;15488;48.114;11.532;2022-11-18T05:09:43;93677.00;;;15.10
15680;BMP180;15488;48.114;11.532;2022-11-18T05:12:14;93682.00;;;15.20
15680;BMP180;15488;48.114;11.532;2022-11-18T05:14:59;93679.00;;;15.10
15680;BMP180;15488;48.114;11.532;2022-11-18T05:17:27;93686.00;;;15.10
15680;BMP180;15488;48.114;11.532;2022-11-18T05:19:54;93683.00;;;15.10
15680;BMP180;15488;48.114;11.532;2022-11-18T05:22:22;93691.00;;;15.00
15680;BMP180;15488;48.114;11.532;2022-11-18T05:24:50;93684.00;;;15.00
15680;BMP180;15488;48.114;11.532;2022-11-18T05:27:18;93676.00;;;15.00
15680;BMP180;15488;48.114;11.532;2022-11-18T05:29:45;93687.00;;;15.00
15680;BMP180;15488;48.114;11.532;2022-11-18T05:32:13;93683.00;;;15.00
15680;BMP180;15488;48.114;11.532;2022-11-18T05:34:41;93684.00;;;15.00
15680;BMP180;15488;48.114;11.532;2022-11-18T05:37:09;93681.00;;;15.00
15680;BMP180;15488;48.114;11.532;2022-11-18T05:39:37;93683.00;;;15.10
15680;BMP180;15488;48.114;11.532;2022-11-18T05:42:06;93689.00;;;15.00
15680;BMP180;15488;48.114;11.532;2022-11-18T05:44:51;93685.00;;;15.20
15680;BMP180;15488;48.114;11.532;2022-11-18T05:47:18;93692.00;;;15.00
15680;BMP180;15488;48.114;11.532;2022-11-18T05:49:46;93694.00;;;15.00
15680;BMP180;15488;48.114;11.532;2022-11-18T05:52:13;93691.00;;;15.00
15680;BMP180;15488;48.114;11.532;2022-11-18T05:54:43;93693.00;;;15.00
15680;BMP180;15488;48.114;11.532;2022-11-18T05:57:12;93702.00;;;14.90
15680;BMP180;15488;48.114;11.532;2022-11-18T05:59:40;93699.00;;;14.90
15680;BMP180;15488;48.114;11.532;2022-11-18T06:02:11;93704.00;;;14.90
15680;BMP180;15488;48.114;11.532;2022-11-18T06:04:42;93720.00;;;14.90
15680;BMP180;15488;48.114;11.532;2022-11-18T06:07:16;93711.00;;;14.90
15680;BMP180;15488;48.114;11.532;2022-11-18T06:09:48;93712.00;;;14.90
15680;BMP180;15488;48.114;11.532;2022-11-18T06:12:21;93715.00;;;15.00
15680;BMP180;15488;48.114;11.532;2022-11-18T06:14:53;93703.00;;;14.90
15680;BMP180;15488;48.114;11.532;2022-11-18T06:17:26;93718.00;;;14.90
15680;BMP180;15488;48.114;11.532;2022-11-18T06:19:56;93709.00;;;14.90
15680;BMP180;15488;48.114;11.532;2022-11-18T06:22:24;93720.00;;;14.80
15680;BMP180;15488;48.114;11.532;2022-11-18T06:24:51;93725.00;;;14.80
15680;BMP180;15488;48.114;11.532;2022-11-18T06:27:21;93730.00;;;14.90
15680;BMP180;15488;48.114;11.532;2022-11-18T06:29:48;93725.00;;;14.80
15680;BMP180;15488;48.114;11.532;2022-11-18T06:32:16;93741.00;;;14.70
15680;BMP180;15488;48.114;11.532;2022-11-18T06:34:43;93748.00;;;14.70
15680;BMP180;15488;48.114;11.532;2022-11-18T06:37:15;93755.00;;;14.70
15680;BMP180;15488;48.114;11.532;2022-11-18T06:39:43;93767.00;;;14.60
15680;BMP180;15488;48.114;11.532;2022-11-18T06:42:10;93765.00;;;14.60
15680;BMP180;15488;48.114;11.532;2022-11-18T06:44:59;93761.00;;;14.70
15680;BMP180;15488;48.114;11.532;2022-11-18T06:47:27;93756.00;;;14.70
15680;BMP180;15488;48.114;11.532;2022-11-18T06:49:54;93758.00;;;14.80
15680;BMP180;15488;48.114;11.532;2022-11-18T06:52:22;93769.00;;;14.80
15680;BMP180;15488;48.114;11.532;2022-11-18T06:54:49;93773.00;;;14.80
15680;BMP180;15488;48.114;11.532;2022-11-18T06:57:17;93777.00;;;14.80
15680;BMP180;15488;48.114;11.532;2022-11-18T06:59:44;93777.00;;;14.60
15680;BMP180;15488;48.114;11.532;2022-11-18T07:02:13;93780.00;;;14.60
15680;BMP180;15488;48.114;11.532;2022-11-18T07:04:43;93777.00;;;14.60
15680;BMP180;15488;48.114;11.532;2022-11-18T07:07:11;93778.00;;;14.50
15680;BMP180;15488;48.114;11.532;2022-11-18T07:09:38;93779.00;;;14.60
15680;BMP180;15488;48.114;11.532;2022-11-18T07:12:06;93778.00;;;14.50
15680;BMP180;15488;48.114;11.532;2022-11-18T07:14:34;93784.00;;;14.60
15680;BMP180;15488;48.114;11.532;2022-11-18T07:17:01;93790.00;;;14.40
15680;BMP180;15488;48.114;11.532;2022-11-18T07:19:30;93800.00;;;14.50
15680;BMP180;15488;48.114;11.532;2022-11-18T07:21:57;93811.00;;;14.60
15680;BMP180;15488;48.114;11.532;2022-11-18T07:24:26;93811.00;;;14.50
15680;BMP180;15488;48.114;11.532;2022-11-18T07:26:53;93813.00;;;14.60
15680;BMP180;15488;48.114;11.532;2022-11-18T07:29:22;93815.00;;;14.50
15680;BMP180;15488;48.114;11.532;2022-11-18T07:31:49;93820.00;;;14.60
15680;BMP180;15488;48.114;11.532;2022-11-18T07:34:17;93820.00;;;14.60
15680;BMP180;15488;48.114;11.532;2022-11-18T07:36:46;93836.00;;;14.70
15680;BMP180;15488;48.114;11.532;2022-11-18T07:39:13;93825.00;;;14.70
15680;BMP180;15488;48.114;11.532;2022-11-18T07:41:40;93829.00;;;14.70
15680;BMP180;15488;48.114;11.532;2022-11-18T07:44:11;93832.00;;;14.80
15680;BMP180;15488;48.114;11.532;2022-11-18T07:46:38;93830.00;;;14.90
15680;BMP180;15488;48.114;11.532;2022-11-18T07:49:07;93837.00;;;14.90
15680;BMP180;15488;48.114;11.532;2022-11-18T07:51:36;93837.00;;;14.90
15680;BMP180;15488;48.114;11.532;2022-11-18T07:54:10;93833.00;;;15.00
15680;BMP180;15488;48.114;11.532;2022-11-18T07:56:38;93841.00;;;15.00
15680;BMP180;15488;48.114;11.532;2022-11-18T07:59:06;93835.00;;;15.00
15680;BMP180;15488;48.114;11.532;2022-11-18T08:01:34;93835.00;;;15.00
15680;BMP180;15488;48.114;11.532;2022-11-18T08:04:06;93840.00;;;15.00
15680;BMP180;15488;48.114;11.532;2022-11-18T08:06:34;93847.00;;;15.10
15680;BMP180;15488;48.114;11.532;2022-11-18T08:09:03;93849.00;;;15.20
15680;BMP180;15488;48.114;11.532;2022-11-18T08:11:31;93851.00;;;15.10
15680;BMP180;15488;48.114;11.532;2022-11-18T08:13:59;93856.00;;;15.20
15680;BMP180;15488;48.114;11.532;2022-11-18T08:16:27;93851.00;;;15.10
15680;BMP180;15488;48.114;11.532;2022-11-18T08:18:55;93850.00;;;15.20
15680;BMP180;15488;48.114;11.532;2022-11-18T08:21:24;93852.00;;;15.20
15680;BMP180;15488;48.114;11.532;2022-11-18T08:23:53;93860.00;;;15.20
15680;BMP180;15488;48.114;11.532;2022-11-18T08:26:21;93855.00;;;15.20
15680;BMP180;15488;48.114;11.532;2022-11-18T08:28:50;93863.00;;;15.20
15680;BMP180;15488;48.114;11.532;2022-11-18T08:31:20;93862.00;;;15.20
15680;BMP180;15488;48.114;11.532;2022-11-18T08:33:47;93871.00;;;15.10
15680;BMP180;15488;48.114;11.532;2022-11-18T08:36:16;93867.00;;;15.10
15680;BMP180;15488;48.114;11.532;2022-11-18T08:38:44;93871.00;;;15.10
15680;BMP180;15488;48.114;11.532;2022-11-18T08:41:12;93882.00;;;15.10
15680;BMP180;15488;48.114;11.532;2022-11-18T08:43:41;93871.00;;;15.00
15680;BMP180;15488;48.114;11.532;2022-11-18T08:46:10;93881.00;;;15.00
15680;BMP180;15488;48.114;11.532;2022-11-18T08:48:37;93875.00;;;15.00
15680;BMP180;15488;48.114;11.532;2022-11-18T08:51:07;93879.00;;;15.00
15680;BMP180;15488;48.114;11.532;2022-11-18T08:53:35;93876.00;;;15.00
15680;BMP180;15488;48.114;11.532;2022-11-18T08:56:02;93881.00;;;15.10
15680;BMP180;15488;48.114;11.532;2022-11-18T08:58:30;93887.00;;;15.20
15680;BMP180;15488;48.114;11.532;2022-11-18T09:01:03;93883.00;;;15.10
15680;BMP180;15488;48.114;11.532;2022-11-18T09:03:31;93897.00;;;15.10
15680;BMP180;15488;48.114;11.532;2022-11-18T09:06:05;93895.00;;;15.20
15680;BMP180;15488;48.114;11.532;2022-11-18T09:08:32;93832.00;;;15.20
15680;BMP180;15488;48.114;11.532;2022-11-18T09:11:05;93906.00;;;15.20
15680;BMP180;15488;48.114;11.532;2022-11-18T09:13:33;93898.00;;;15.20
15680;BMP180;15488;48.114;11.532;2022-11-18T09:16:01;93909.00;;;15.20
15680;BMP180;15488;48.114;11.532;2022-11-18T09:18:31;93905.00;;;15.20
15680;BMP180;15488;48.114;11.532;2022-11-18T09:21:01;93908.00;;;15.20
15680;BMP180;15488;48.114;11.532;2022-11-18T09:23:29;93912.00;;;15.30
15680;BMP180;15488;48.114;11.532;2022-11-18T09:25:57;93924.00;;;15.20
15680;BMP180;15488;48.114;11.532;2022-11-18T09:28:27;93916.00;;;15.20
15680;BMP180;15488;48.114;11.532;2022-11-18T09:30:54;93920.00;;;15.10
15680;BMP180;15488;48.114;11.532;2022-11-18T09:33:22;93911.00;;;15.20
15680;BMP180;15488;48.114;11.532;2022-11-18T09:35:51;93930.00;;;15.10
15680;BMP180;15488;48.114;11.532;2022-11-18T09:38:18;93921.00;;;15.20
15680;BMP180;15488;48.114;11.532;2022-11-18T09:40:55;93926.00;;;15.20
15680;BMP180;15488;48.114;11.532;2022-11-18T09:43:33;93933.00;;;15.20
15680;BMP180;15488;48.114;11.532;2022-11-18T09:46:20;93933.00;;;15.30
15680;BMP180;15488;48.114;11.532;2022-11-18T09:48:49;93946.00;;;15.20
15680;BMP180;15488;48.114;11.532;2022-11-18T09:51:39;93938.00;;;15.30
15680;BMP180;15488;48.114;11.532;2022-11-18T09:54:10;93934.00;;;15.20
15680;BMP180;15488;48.114;11.532;2022-11-18T09:56:39;93938.00;;;15.30
15680;BMP180;15488;48.114;11.532;2022-11-18T09:59:10;93945.00;;;15.40
15680;BMP180;15488;48.114;11.532;2022-11-18T10:01:40;93941.00;;;15.30
15680;BMP180;15488;48.114;11.532;2022-11-18T10:04:13;93950.00;;;15.30
15680;BMP180;15488;48.114;11.532;2022-11-18T10:06:43;93962.00;;;15.40
15680;BMP180;15488;48.114;11.532;2022-11-18T10:09:25;93958.00;;;15.40
15680;BMP180;15488;48.114;11.532;2022-11-18T10:12:01;93956.00;;;15.20
15680;BMP180;15488;48.114;11.532;2022-11-18T10:14:44;93956.00;;;15.40
15680;BMP180;15488;48.114;11.532;2022-11-18T10:17:23;93954.00;;;15.40
15680;BMP180;15488;48.114;11.532;2022-11-18T10:22:51;93951.00;;;15.40
15680;BMP180;15488;48.114;11.532;2022-11-18T10:25:20;93950.00;;;15.40
15680;BMP180;15488;48.114;11.532;2022-11-18T10:27:49;93962.00;;;15.50
15680;BMP180;15488;48.114;11.532;2022-11-18T10:30:18;93963.00;;;15.50
15680;BMP180;15488;48.114;11.532;2022-11-18T10:32:59;93949.00;;;15.50
15680;BMP180;15488;48.114;11.532;2022-11-18T10:35:30;93947.00;;;15.40
15680;BMP180;15488;48.114;11.532;2022-11-18T10:38:08;93947.00;;;15.40
15680;BMP180;15488;48.114;11.532;2022-11-18T10:40:44;93946.00;;;15.40
15680;BMP180;15488;48.114;11.532;2022-11-18T10:43:41;93946.00;;;15.40
15680;BMP180;15488;48.114;11.532;2022-11-18T10:46:16;93951.00;;;15.40
15680;BMP180;15488;48.114;11.532;2022-11-18T10:48:44;93953.00;;;15.40
15680;BMP180;15488;48.114;11.532;2022-11-18T10:51:21;93946.00;;;15.40
15680;BMP180;15488;48.114;11.532;2022-11-18T10:53:50;93955.00;;;15.50
15680;BMP180;15488;48.114;11.532;2022-11-18T10:56:17;93947.00;;;15.50
15680;BMP180;15488;48.114;11.532;2022-11-18T10:58:46;93966.00;;;15.50
15680;BMP180;15488;48.114;11.532;2022-11-18T11:01:20;93975.00;;;15.50
15680;BMP180;15488;48.114;11.532;2022-11-18T11:03:58;93969.00;;;15.40
15680;BMP180;15488;48.114;11.532;2022-11-18T11:06:35;93965.00;;;15.40
15680;BMP180;15488;48.114;11.532;2022-11-18T11:09:09;93955.00;;;15.40
15680;BMP180;15488;48.114;11.532;2022-11-18T11:11:56;93950.00;;;15.30
15680;BMP180;15488;48.114;11.532;2022-11-18T11:14:27;93951.00;;;15.40
15680;BMP180;15488;48.114;11.532;2022-11-18T11:17:01;93944.00;;;15.40
15680;BMP180;15488;48.114;11.532;2022-11-18T11:19:39;93938.00;;;15.40
15680;BMP180;15488;48.114;11.532;2022-11-18T11:22:11;93940.00;;;15.40
15680;BMP180;15488;48.114;11.532;2022-11-18T11:24:40;93937.00;;;15.40
15680;BMP180;15488;48.114;11.532;2022-11-18T11:27:23;93949.00;;;15.40
15680;BMP180;15488;48.114;11.532;2022-11-18T11:30:14;93950.00;;;15.40
15680;BMP180;15488;48.114;11.532;2022-11-18T11:33:07;93954.00;;;15.50
15680;BMP180;15488;48.114;11.532;2022-11-18T11:35:43;93954.00;;;15.40
15680;BMP180;15488;48.114;11.532;2022-11-18T11:38:20;93966.00;;;15.50
15680;BMP180;15488;48.114;11.532;2022-11-18T11:40:58;93958.00;;;15.40
15680;BMP180;15488;48.114;11.532;2022-11-18T11:43:35;93966.00;;;15.40
15680;BMP180;15488;48.114;11.532;2022-11-18T11:46:22;93966.00;;;15.30
15680;BMP180;15488;48.114;11.532;2022-11-18T11:48:57;93964.00;;;15.30
15680;BMP180;15488;48.114;11.532;2022-11-18T11:51:33;93966.00;;;15.30
15680;BMP180;15488;48.114;11.532;2022-11-18T11:54:32;93972.00;;;15.20
15680;BMP180;15488;48.114;11.532;2022-11-18T11:57:04;93981.00;;;15.20
15680;BMP180;15488;48.114;11.532;2022-11-18T11:59:41;93969.00;;;15.10
15680;BMP180;15488;48.114;11.532;2022-11-18T12:02:31;93971.00;;;15.10
15680;BMP180;15488;48.114;11.532;2022-11-18T12:05:06;93968.00;;;15.10
15680;BMP180;15488;48.114;11.532;2022-11-18T12:07:41;93972.00;;;15.10
15680;BMP180;15488;48.114;11.532;2022-11-18T12:10:24;93974.00;;;15.10
15680;BMP180;15488;48.114;11.532;2022-11-18T12:13:04;93978.00;;;15.20
15680;BMP180;15488;48.114;11.532;2022-11-18T12:15:47;93979.00;;;15.20
15680;BMP180;15488;48.114;11.532;2022-11-18T12:18:21;93989.00;;;15.10
15680;BMP180;15488;48.114;11.532;2022-11-18T12:20:51;93982.00;;;15.20
15680;BMP180;15488;48.114;11.532;2022-11-18T12:23:20;93991.00;;;15.10
15680;BMP180;15488;48.114;11.532;2022-11-18T12:25:57;93984.00;;;15.00
15680;BMP180;15488;48.114;11.532;2022-11-18T12:28:41;93995.00;;;15.00
15680;BMP180;15488;48.114;11.532;2022-11-18T12:31:32;93988.00;;;14.90
15680;BMP180;15488;48.114;11.532;2022-11-18T12:34:05;93989.00;;;14.90
15680;BMP180;15488;48.114;11.532;2022-11-18T12:36:43;94007.00;;;15.00
15680;BMP180;15488;48.114;11.532;2022-11-18T12:39:45;94003.00;;;14.90
15680;BMP180;15488;48.114;11.532;2022-11-18T12:42:34;94004.00;;;15.00
15680;BMP180;15488;48.114;11.532;2022-11-18T12:45:48;94008.00;;;14.90
15680;BMP180;15488;48.114;11.532;2022-11-18T12:48:41;94015.00;;;14.80
15680;BMP180;15488;48.114;11.532;2022-11-18T12:54:23;94027.00;;;14.80
15680;BMP180;15488;48.114;11.532;2022-11-18T12:56:52;94024.00;;;14.80
15680;BMP180;15488;48.114;11.532;2022-11-18T12:59:27;94020.00;;;14.70
15680;BMP180;15488;48.114;11.532;2022-11-18T13:02:21;94025.00;;;14.90
15680;BMP180;15488;48.114;11.532;2022-11-18T13:05:06;94022.00;;;14.80
15680;BMP180;15488;48.114;11.532;2022-11-18T13:07:41;94024.00;;;14.70
15680;BMP180;15488;48.114;11.532;2022-11-18T13:10:29;94028.00;;;14.80
15680;BMP180;15488;48.114;11.532;2022-11-18T13:12:58;94029.00;;;14.80
15680;BMP180;15488;48.114;11.532;2022-11-18T13:15:26;94032.00;;;14.70
15680;BMP180;15488;48.114;11.532;2022-11-18T13:18:15;94039.00;;;14.70
15680;BMP180;15488;48.114;11.532;2022-11-18T13:20:52;94039.00;;;14.70
15680;BMP180;15488;48.114;11.532;2022-11-18T13:23:28;94039.00;;;14.70
15680;BMP180;15488;48.114;11.532;2022-11-18T13:26:18;94048.00;;;14.70
15680;BMP180;15488;48.114;11.532;2022-11-18T13:29:02;94043.00;;;14.70
15680;BMP180;15488;48.114;11.532;2022-11-18T13:31:37;94041.00;;;14.70
15680;BMP180;15488;48.114;11.532;2022-11-18T13:34:15;94042.00;;;14.70
15680;BMP180;15488;48.114;11.532;2022-11-18T13:36:46;94039.00;;;14.80
15680;BMP180;15488;48.114;11.532;2022-11-18T13:39:20;94042.00;;;14.80
15680;BMP180;15488;48.114;11.532;2022-11-18T13:41:58;94043.00;;;14.80
15680;BMP180;15488;48.114;11.532;2022-11-18T13:44:28;94041.00;;;14.70
15680;BMP180;15488;48.114;11.532;2022-11-18T13:47:02;94044.00;;;14.80
15680;BMP180;15488;48.114;11.532;2022-11-18T13:49:45;94044.00;;;14.70
15680;BMP180;15488;48.114;11.532;2022-11-18T13:52:16;94048.00;;;14.70
15680;BMP180;15488;48.114;11.532;2022-11-18T13:54:45;94051.00;;;14.70
15680;BMP180;15488;48.114;11.532;2022-11-18T13:57:16;94050.00;;;14.70
15680;BMP180;15488;48.114;11.532;2022-11-18T13:59:46;94046.00;;;14.70
15680;BMP180;15488;48.114;11.532;2022-11-18T14:02:16;94048.00;;;14.70
15680;BMP180;15488;48.114;11.532;2022-11-18T14:04:51;94054.00;;;14.70
15680;BMP180;15488;48.114;11.532;2022-11-18T14:07:25;94048.00;;;14.70
15680;BMP180;15488;48.114;11.532;2022-11-18T14:09:55;94057.00;;;14.80
15680;BMP180;15488;48.114;11.532;2022-11-18T14:12:25;94048.00;;;14.80
15680;BMP180;15488;48.114;11.532;2022-11-18T14:15:12;94053.00;;;14.80
15680;BMP180;15488;48.114;11.532;2022-11-18T14:17:52;94056.00;;;14.90
15680;BMP180;15488;48.114;11.532;2022-11-18T14:20:23;94055.00;;;14.80
15680;BMP180;15488;48.114;11.532;2022-11-18T14:22:53;94057.00;;;14.80
15680;BMP180;15488;48.114;11.532;2022-11-18T14:25:25;94061.00;;;14.80
15680;BMP180;15488;48.114;11.532;2022-11-18T14:27:55;94061.00;;;14.80
15680;BMP180;15488;48.114;11.532;2022-11-18T14:30:30;94063.00;;;14.80
15680;BMP180;15488;48.114;11.532;2022-11-18T14:33:16;94071.00;;;14.80
15680;BMP180;15488;48.114;11.532;2022-11-18T14:35:50;94058.00;;;14.80